Time;durP1;ratioP1;P1;durP2;ratioP2;P2;SDS_P1;SDS_P2;PMS_P1;PMS_P2;Temp;Humidity;BMP_temperature;BMP_pressure;BME280_temperature;BME280_humidity;BME280_pressure;Samples;Min_cycle;Max_cycle;Signal;HPM_P1;HPM_P2
2021/08/09 00:00:39;;;;;;;4.20;1.15;;;;;;;12.94;100.00;100324.63;4959803;29;20027;-81
2021/08/09 00:03:05;;;;;;;4.93;1.40;;;;;;;12.94;100.00;100324.63;4958336;28;20031;-81
2021/08/09 00:05:31;;;;;;;4.22;1.20;;;;;;;12.97;100.00;100315.88;4956530;28;20054;-81
2021/08/09 00:07:56;;;;;;;5.38;1.25;;;;;;;12.84;100.00;100324.06;4956804;28;20031;-81
2021/08/09 00:10:22;;;;;;;3.90;1.20;;;;;;;12.86;100.00;100313.59;4955270;29;20034;-81
2021/08/09 00:12:47;;;;;;;6.35;1.48;;;;;;;12.83;100.00;100316.28;4956392;28;20096;-82
2021/08/09 00:15:12;;;;;;;5.20;1.20;;;;;;;12.80;100.00;100305.97;4955114;29;20142;-81
2021/08/09 00:17:38;;;;;;;5.38;1.42;;;;;;;12.80;100.00;100309.44;4955460;29;20038;-81
2021/08/09 00:20:04;;;;;;;5.32;1.40;;;;;;;12.79;100.00;100310.34;4954935;29;20037;-81
2021/08/09 00:22:29;;;;;;;4.88;1.38;;;;;;;12.77;100.00;100306.06;4955174;28;20023;-81
2021/08/09 00:24:54;;;;;;;5.90;1.70;;;;;;;12.64;100.00;100303.84;4955200;29;20114;-81
2021/08/09 00:27:19;;;;;;;4.85;1.63;;;;;;;12.66;100.00;100315.09;4955154;29;20495;-81
2021/08/09 00:29:45;;;;;;;5.25;1.60;;;;;;;12.71;100.00;100308.88;4954925;29;20106;-81
2021/08/09 00:32:10;;;;;;;6.32;1.55;;;;;;;12.75;100.00;100313.09;4956990;29;20039;-81
2021/08/09 00:34:35;;;;;;;4.57;1.45;;;;;;;12.77;100.00;100311.28;4956203;28;20027;-81
2021/08/09 00:37:00;;;;;;;5.03;1.60;;;;;;;12.78;100.00;100313.00;4955516;29;20034;-81
2021/08/09 00:39:26;;;;;;;7.22;2.15;;;;;;;12.79;100.00;100318.16;4954647;29;20055;-81
2021/08/09 00:41:51;;;;;;;6.47;1.70;;;;;;;12.78;100.00;100320.81;4954982;29;20502;-82
2021/08/09 00:44:16;;;;;;;5.05;1.67;;;;;;;12.96;100.00;100322.84;4955227;28;20082;-81
2021/08/09 00:46:42;;;;;;;4.40;1.40;;;;;;;13.01;100.00;100318.31;4955299;29;20023;-81
2021/08/09 00:49:07;;;;;;;7.65;1.48;;;;;;;13.08;100.00;100314.63;4956831;28;20031;-81
2021/08/09 00:51:32;;;;;;;5.28;1.60;;;;;;;13.17;100.00;100320.44;4955527;29;20023;-81
2021/08/09 00:53:58;;;;;;;4.35;1.40;;;;;;;13.19;100.00;100310.81;4955087;28;20110;-81
2021/08/09 00:56:23;;;;;;;6.75;1.52;;;;;;;13.25;100.00;100311.50;4956542;28;20074;-81
2021/08/09 00:58:49;;;;;;;5.07;1.55;;;;;;;13.26;100.00;100315.78;4956267;28;20027;-81
2021/08/09 01:01:14;;;;;;;5.22;1.38;;;;;;;13.24;100.00;100307.16;4956884;28;20074;-81
2021/08/09 01:03:39;;;;;;;5.50;1.88;;;;;;;13.23;100.00;100317.63;4958646;28;20035;-81
2021/08/09 01:06:05;;;;;;;6.82;1.88;;;;;;;13.25;100.00;100308.91;4959349;29;20038;-81
2021/08/09 01:08:34;;;;;;;3.75;1.33;;;;;;;13.26;100.00;100325.38;4959356;29;20031;-81
2021/08/09 01:11:12;;;;;;;6.18;1.60;;;;;;;13.30;100.00;100312.22;4959234;29;20029;-81
2021/08/09 01:13:53;;;;;;;12.23;2.03;;;;;;;13.27;100.00;100317.50;4959889;28;20023;-81
2021/08/09 01:16:25;;;;;;;6.53;1.60;;;;;;;13.26;100.00;100318.41;4959325;29;20082;-80
2021/08/09 01:18:57;;;;;;;8.02;1.73;;;;;;;13.30;100.00;100319.13;4959490;29;20027;-81
2021/08/09 01:21:23;;;;;;;6.88;1.98;;;;;;;13.24;100.00;100308.91;4961098;28;20087;-82
2021/08/09 01:24:32;;;;;;;5.47;1.30;;;;;;;13.29;100.00;100309.63;4959017;28;20031;-82
2021/08/09 01:27:06;;;;;;;5.53;1.40;;;;;;;13.28;100.00;100311.41;4954855;29;20059;-81
2021/08/09 01:29:36;;;;;;;;;;;;;;;13.33;100.00;100313.84;4961436;28;20415;-81
2021/08/09 01:32:03;;;;;;;5.25;1.55;;;;;;;13.35;100.00;100315.50;4960004;28;19964;-82
2021/08/09 01:34:29;;;;;;;5.32;1.75;;;;;;;13.38;100.00;100314.53;4959419;28;20027;-82
2021/08/09 01:36:58;;;;;;;4.10;1.38;;;;;;;13.29;100.00;100305.28;4960333;29;20023;-81
2021/08/09 01:39:23;;;;;;;7.07;1.70;;;;;;;13.28;100.00;100307.94;4959637;29;20554;-81
2021/08/09 01:41:52;;;;;;;7.03;1.45;;;;;;;13.32;100.00;100299.13;4961276;29;20031;-81
2021/08/09 01:44:18;;;;;;;3.08;1.17;;;;;;;13.30;100.00;100303.50;4958910;28;20511;-81
2021/08/09 01:46:46;;;;;;;5.93;1.60;;;;;;;13.35;100.00;100291.19;4959185;29;20105;-81
2021/08/09 01:49:13;;;;;;;5.22;1.58;;;;;;;13.35;100.00;100297.25;4958201;28;20033;-81
2021/08/09 01:51:38;;;;;;;5.45;1.40;;;;;;;13.32;100.00;100296.50;4957728;29;20127;-81
2021/08/09 01:54:05;;;;;;;6.32;1.30;;;;;;;13.30;100.00;100293.09;4958947;28;20059;-81
2021/08/09 01:56:31;;;;;;;6.57;1.55;;;;;;;13.34;100.00;100298.16;4957682;28;20027;-81
2021/08/09 01:58:56;;;;;;;4.70;1.40;;;;;;;13.33;100.00;100298.19;4959529;28;20070;-81
2021/08/09 02:01:22;;;;;;;9.25;1.70;;;;;;;13.27;100.00;100303.63;4958015;29;20050;-81
2021/08/09 02:03:48;;;;;;;5.18;1.25;;;;;;;13.29;100.00;100294.84;4957788;28;20102;-81
2021/08/09 02:06:14;;;;;;;3.13;1.10;;;;;;;13.26;100.00;100292.34;4957928;28;20572;-81
2021/08/09 02:08:40;;;;;;;6.18;1.83;;;;;;;13.35;100.00;100301.63;4957693;29;20023;-81
2021/08/09 02:11:18;;;;;;;4.75;1.40;;;;;;;13.38;100.00;100303.28;4957862;28;20029;-81
2021/08/09 02:13:49;;;;;;;7.65;2.08;;;;;;;13.40;100.00;100302.31;4957675;28;20019;-81
2021/08/09 02:16:18;;;;;;;6.88;1.55;;;;;;;13.39;100.00;100304.97;4959306;28;20023;-81
2021/08/09 02:19:02;;;;;;;4.25;1.70;;;;;;;13.44;100.00;100309.13;4959084;28;20055;-81
2021/08/09 02:21:32;;;;;;;5.22;1.70;;;;;;;13.45;100.00;100313.41;4959126;28;20365;-81
2021/08/09 02:24:01;;;;;;;5.18;1.50;;;;;;;13.48;100.00;100315.91;4959094;28;20063;-81
2021/08/09 02:26:31;;;;;;;7.70;1.48;;;;;;;13.45;100.00;100318.63;4958981;28;20110;-81
2021/08/09 02:29:05;;;;;;;7.03;1.98;;;;;;;13.47;100.00;100316.84;4959207;28;20082;-81
2021/08/09 02:31:32;;;;;;;4.45;1.17;;;;;;;13.45;100.00;100318.63;4959036;28;20510;-81
2021/08/09 02:34:01;;;;;;;4.05;1.17;;;;;;;13.49;100.00;100320.25;4957390;28;20021;-81
2021/08/09 02:36:26;;;;;;;5.53;1.27;;;;;;;13.44;100.00;100319.53;4959179;28;20106;-81
2021/08/09 02:38:51;;;;;;;5.30;1.55;;;;;;;13.42;100.00;100321.34;4957923;29;20062;-81
2021/08/09 02:41:18;;;;;;;5.07;1.23;;;;;;;13.35;100.00;100318.09;4959428;28;20488;-81
2021/08/09 02:43:44;;;;;;;8.13;1.95;;;;;;;13.36;100.00;100311.13;4957769;28;20023;-81
2021/08/09 02:46:10;;;;;;;6.43;1.70;;;;;;;13.31;100.00;100316.50;4957611;29;20027;-81
2021/08/09 02:48:37;;;;;;;6.53;1.98;;;;;;;13.22;100.00;100314.16;4958427;29;20066;-81
2021/08/09 02:51:02;;;;;;;6.85;1.65;;;;;;;13.19;100.00;100308.22;4958905;29;20027;-81
2021/08/09 02:53:28;;;;;;;4.88;1.58;;;;;;;13.21;100.00;100314.22;4957566;28;20027;-81
2021/08/09 02:55:57;;;;;;;8.27;1.75;;;;;;;13.13;100.00;100304.91;4957946;29;20019;-81
2021/08/09 02:58:22;;;;;;;5.53;1.58;;;;;;;13.05;100.00;100313.84;4957896;29;20055;-81
2021/08/09 03:00:48;;;;;;;7.43;1.83;;;;;;;13.00;100.00;100315.78;4957450;29;20125;-81
2021/08/09 03:03:20;;;;;;;5.22;1.80;;;;;;;12.95;100.00;100321.13;4957522;28;20031;-81
2021/08/09 03:05:46;;;;;;;7.03;2.05;;;;;;;12.91;100.00;100324.72;4959337;28;20055;-81
2021/08/09 03:08:12;;;;;;;5.82;1.83;;;;;;;12.97;100.00;100319.31;4959847;28;20030;-81
2021/08/09 03:10:38;;;;;;;7.22;1.90;;;;;;;12.95;100.00;100325.47;4958414;29;20400;-81
2021/08/09 03:13:08;;;;;;;5.20;1.48;;;;;;;12.95;100.00;100318.50;4958916;28;20038;-81
2021/08/09 03:15:33;;;;;;;10.57;1.73;;;;;;;12.91;100.00;100316.91;4958532;29;20435;-81
2021/08/09 03:18:00;;;;;;;4.97;1.52;;;;;;;12.86;100.00;100313.59;4960616;28;20055;-81
2021/08/09 03:20:25;;;;;;;6.60;1.70;;;;;;;12.77;100.00;100317.34;4960140;29;20492;-81
2021/08/09 03:22:50;;;;;;;6.80;2.08;;;;;;;12.78;100.00;100303.44;4955405;28;20038;-81
2021/08/09 03:25:16;;;;;;;6.90;1.98;;;;;;;12.83;100.00;100311.09;4954935;29;20030;-79
2021/08/09 03:27:41;;;;;;;8.57;1.90;;;;;;;12.87;100.00;100315.31;4956661;28;20023;-78
2021/08/09 03:30:07;;;;;;;7.97;1.58;;;;;;;12.83;100.00;100303.28;4954954;29;20027;-78
2021/08/09 03:32:32;;;;;;;8.10;2.10;;;;;;;12.73;100.00;100307.94;4955727;28;20027;-79
2021/08/09 03:34:57;;;;;;;6.22;1.60;;;;;;;12.75;100.00;100311.34;4956736;28;20033;-79
2021/08/09 03:37:22;;;;;;;6.57;1.63;;;;;;;12.72;100.00;100313.19;4955336;29;20031;-79
2021/08/09 03:39:47;;;;;;;7.43;1.65;;;;;;;12.68;100.00;100312.41;4956383;28;20391;-79
2021/08/09 03:42:13;;;;;;;7.63;2.00;;;;;;;12.70;100.00;100315.00;4955307;29;20024;-79
2021/08/09 03:44:38;;;;;;;7.80;1.58;;;;;;;12.76;100.00;100309.59;4956640;28;20040;-79
2021/08/09 03:47:03;;;;;;;5.35;1.77;;;;;;;12.73;100.00;100322.69;4956947;28;20464;-79
2021/08/09 03:49:28;;;;;;;8.60;2.22;;;;;;;12.65;100.00;100310.78;4955702;29;20022;-79
2021/08/09 03:51:54;;;;;;;6.30;1.42;;;;;;;12.64;100.00;100310.81;4957130;28;20152;-79
2021/08/09 03:54:19;;;;;;;6.07;1.50;;;;;;;12.63;100.00;100324.75;4955493;28;20035;-79
2021/08/09 03:56:44;;;;;;;6.47;1.58;;;;;;;12.58;100.00;100311.84;4957385;28;20023;-79
2021/08/09 03:59:10;;;;;;;7.93;2.10;;;;;;;12.64;100.00;100327.28;4955014;29;20424;-79
2021/08/09 04:01:38;;;;;;;4.78;1.58;;;;;;;12.65;100.00;100321.19;4956542;28;20031;-79
2021/08/09 04:04:05;;;;;;;7.93;1.90;;;;;;;12.63;100.00;100325.59;4980293;22;20425;-80
2021/08/09 04:06:30;;;;;;;4.97;1.63;;;;;;;12.59;100.00;100323.09;4956463;28;20047;-80
2021/08/09 04:08:56;;;;;;;9.18;2.45;;;;;;;12.58;100.00;100330.06;4956166;28;20535;-80
2021/08/09 04:11:21;;;;;;;6.38;1.83;;;;;;;12.60;100.00;100327.44;4956671;28;20043;-80
2021/08/09 04:13:46;;;;;;;8.05;2.15;;;;;;;12.61;100.00;100327.38;4954649;28;20054;-80
2021/08/09 04:16:11;;;;;;;6.35;1.98;;;;;;;12.60;100.00;100330.88;4954361;29;20027;-80
2021/08/09 04:18:37;;;;;;;7.75;1.83;;;;;;;12.55;100.00;100337.97;4954331;29;20027;-80
2021/08/09 04:21:02;;;;;;;5.75;1.77;;;;;;;12.64;100.00;100344.66;4954842;29;20030;-80
2021/08/09 04:23:28;;;;;;;6.88;1.88;;;;;;;12.62;100.00;100347.31;4954320;29;20081;-80
2021/08/09 04:25:53;;;;;;;7.93;1.83;;;;;;;12.62;100.00;100338.63;4954701;28;20045;-80
2021/08/09 04:28:18;;;;;;;5.43;1.73;;;;;;;12.61;100.00;100342.97;4954590;28;20030;-80
2021/08/09 04:30:44;;;;;;;8.93;1.92;;;;;;;12.67;100.00;100345.41;4955157;29;20027;-81
2021/08/09 04:33:09;;;;;;;6.15;1.70;;;;;;;12.60;100.00;100349.09;4954494;29;20038;-81
2021/08/09 04:35:34;;;;;;;7.88;2.45;;;;;;;12.64;100.00;100348.09;4954536;28;20377;-80
2021/08/09 04:37:59;;;;;;;7.60;2.03;;;;;;;12.73;100.00;100354.78;4955556;29;20023;-80
2021/08/09 04:40:25;;;;;;;6.85;1.77;;;;;;;12.67;100.00;100358.41;4955714;28;20058;-81
2021/08/09 04:42:51;;;;;;;8.75;2.35;;;;;;;12.70;100.00;100354.03;4955194;29;20052;-80
2021/08/09 04:45:16;;;;;;;6.55;1.90;;;;;;;12.73;100.00;100356.53;4955597;28;20027;-81
2021/08/09 04:47:42;;;;;;;7.30;2.10;;;;;;;12.71;100.00;100353.09;4954679;29;20070;-81
2021/08/09 04:50:07;;;;;;;7.65;2.25;;;;;;;12.73;100.00;100365.19;4956299;28;20027;-81
2021/08/09 04:52:38;;;;;;;6.47;1.70;;;;;;;12.78;100.00;100365.91;4956081;28;20051;-81
2021/08/09 04:55:04;;;;;;;10.07;2.47;;;;;;;12.87;100.00;100367.38;4954688;28;20113;-81
2021/08/09 04:57:30;;;;;;;6.40;1.63;;;;;;;12.91;100.00;100363.78;4956120;29;20078;-80
2021/08/09 04:59:55;;;;;;;5.65;1.50;;;;;;;12.90;100.00;100375.09;4954944;29;20031;-80
2021/08/09 05:02:20;;;;;;;6.25;2.00;;;;;;;13.01;100.00;100372.16;4956709;28;20477;-80
2021/08/09 05:04:45;;;;;;;11.80;2.33;;;;;;;13.00;100.00;100366.09;4956620;28;20027;-80
2021/08/09 05:07:11;;;;;;;9.55;2.45;;;;;;;13.10;100.00;100382.28;4956303;29;20170;-80
2021/08/09 05:09:36;;;;;;;5.75;1.77;;;;;;;13.14;100.00;100379.50;4958016;28;20039;-80
2021/08/09 05:12:01;;;;;;;6.68;1.90;;;;;;;13.25;100.00;100386.19;4958910;28;20031;-80
2021/08/09 05:14:27;;;;;;;4.80;1.70;;;;;;;13.20;100.00;100380.22;4956850;28;20027;-80
2021/08/09 05:16:52;;;;;;;9.57;1.55;;;;;;;13.30;100.00;100387.75;4957729;28;20027;-80
2021/08/09 05:19:18;;;;;;;6.60;2.15;;;;;;;13.39;100.00;100385.72;4956720;29;20030;-80
2021/08/09 05:21:43;;;;;;;8.55;1.85;;;;;;;13.55;100.00;100390.41;4956594;29;20480;-80
2021/08/09 05:24:08;;;;;;;6.90;1.52;;;;;;;13.47;100.00;100396.75;4955620;28;20444;-80
2021/08/09 05:26:34;;;;;;;8.68;2.20;;;;;;;13.62;100.00;100393.66;4956836;29;20019;-80
2021/08/09 05:29:00;;;;;;;9.90;2.20;;;;;;;13.81;100.00;100393.88;4956998;28;20023;-80
2021/08/09 05:31:27;;;;;;;6.78;2.33;;;;;;;14.28;100.00;100397.44;4958248;28;20031;-80
2021/08/09 05:33:54;;;;;;;7.82;1.70;;;;;;;14.70;100.00;100401.13;4957434;28;20027;-80
2021/08/09 05:36:20;;;;;;;7.50;1.55;;;;;;;14.88;100.00;100402.22;4955672;28;20100;-80
2021/08/09 05:38:45;;;;;;;12.18;2.65;;;;;;;15.33;100.00;100398.66;4955714;29;20073;-81
2021/08/09 05:41:10;;;;;;;7.82;2.15;;;;;;;15.45;100.00;100397.31;4956932;29;20037;-80
2021/08/09 05:43:35;;;;;;;6.45;2.03;;;;;;;15.50;100.00;100405.84;4957070;28;20114;-80
2021/08/09 05:46:01;;;;;;;8.07;1.58;;;;;;;15.82;100.00;100394.06;4955424;28;20030;-81
2021/08/09 05:48:26;;;;;;;5.60;1.65;;;;;;;16.14;100.00;100397.91;4959348;29;20027;-80
2021/08/09 05:50:51;;;;;;;7.50;1.95;;;;;;;16.09;100.00;100400.72;4958994;29;20019;-80
2021/08/09 05:53:16;;;;;;;8.18;2.35;;;;;;;16.14;100.00;100411.00;4959840;29;20073;-81
2021/08/09 05:55:42;;;;;;;8.23;1.73;;;;;;;16.09;100.00;100399.88;4960450;28;20031;-80
2021/08/09 05:58:07;;;;;;;8.68;1.70;;;;;;;16.35;100.00;100403.97;4960954;28;20488;-79
2021/08/09 06:00:33;;;;;;;7.57;2.28;;;;;;;16.37;100.00;100394.25;4957444;29;20024;-80
2021/08/09 06:02:58;;;;;;;8.95;1.90;;;;;;;16.97;97.87;100408.13;4960903;28;20054;-81
2021/08/09 06:05:23;;;;;;;8.65;1.98;;;;;;;17.02;95.92;100403.50;4961346;28;20042;-80
2021/08/09 06:07:49;;;;;;;8.77;1.65;;;;;;;17.13;96.07;100407.41;4958519;29;20372;-80
2021/08/09 06:10:14;;;;;;;9.45;1.60;;;;;;;17.24;95.67;100407.72;4958594;29;20027;-80
2021/08/09 06:12:39;;;;;;;7.35;1.73;;;;;;;17.51;94.31;100400.28;4958285;29;20508;-80
2021/08/09 06:15:06;;;;;;;4.93;1.38;;;;;;;17.72;94.63;100400.97;4961256;28;20027;-80
2021/08/09 06:17:35;;;;;;;9.48;1.92;;;;;;;17.07;94.60;100400.66;4960893;28;20027;-80
2021/08/09 06:20:01;;;;;;;9.63;1.55;;;;;;;16.94;96.65;100402.19;4958726;29;20030;-80
2021/08/09 06:22:27;;;;;;;6.03;1.40;;;;;;;16.38;100.00;100402.97;4960238;28;20054;-80
2021/08/09 06:24:52;;;;;;;9.02;1.88;;;;;;;16.70;97.70;100401.50;4958813;28;20507;-80
2021/08/09 06:27:17;;;;;;;7.60;2.10;;;;;;;17.20;96.56;100407.00;4959683;28;20062;-80
2021/08/09 06:29:43;;;;;;;6.90;2.20;;;;;;;16.91;96.05;100402.31;4958886;29;20062;-80
2021/08/09 06:32:08;;;;;;;8.85;1.90;;;;;;;17.25;95.71;100412.88;4958565;29;20034;-80
2021/08/09 06:34:33;;;;;;;10.05;1.92;;;;;;;16.85;98.65;100413.09;4960232;28;20027;-80
2021/08/09 06:36:59;;;;;;;11.48;2.10;;;;;;;16.61;99.86;100413.25;4958934;29;20109;-80
2021/08/09 06:39:24;;;;;;;6.57;1.60;;;;;;;16.25;100.00;100413.97;4958045;29;20019;-80
2021/08/09 06:41:49;;;;;;;6.65;1.83;;;;;;;16.29;100.00;100414.72;4958992;28;20050;-80
2021/08/09 06:44:15;;;;;;;7.93;2.15;;;;;;;16.84;100.00;100414.88;4959236;28;20027;-79
2021/08/09 06:46:40;;;;;;;8.35;1.95;;;;;;;17.22;97.28;100417.44;4957356;29;20034;-79
2021/08/09 06:49:06;;;;;;;6.65;1.65;;;;;;;17.72;94.10;100425.44;4959617;28;20031;-80
2021/08/09 06:51:31;;;;;;;7.45;2.13;;;;;;;17.47;94.36;100427.59;4959555;28;20031;-80
2021/08/09 06:53:57;;;;;;;5.05;1.52;;;;;;;16.94;97.90;100425.75;4959665;28;20051;-79
2021/08/09 06:56:22;;;;;;;8.48;2.10;;;;;;;16.55;99.77;100426.63;4958086;28;20086;-79
2021/08/09 06:58:47;;;;;;;8.05;1.95;;;;;;;16.86;100.00;100426.09;4958245;28;20037;-80
2021/08/09 07:01:13;;;;;;;9.10;2.25;;;;;;;16.82;100.00;100427.19;4957764;29;20062;-80
2021/08/09 07:03:38;;;;;;;6.80;2.05;;;;;;;16.64;100.00;100428.81;4957212;28;20118;-80
2021/08/09 07:06:03;;;;;;;8.88;2.10;;;;;;;16.49;100.00;100421.66;4959136;28;20031;-80
2021/08/09 07:08:28;;;;;;;7.97;2.17;;;;;;;16.05;100.00;100429.72;4958629;28;20047;-80
2021/08/09 07:10:54;;;;;;;7.38;2.05;;;;;;;16.11;100.00;100426.81;4959355;28;20110;-80
2021/08/09 07:13:19;;;;;;;9.82;2.03;;;;;;;16.21;100.00;100432.50;4959056;28;20019;-80
2021/08/09 07:15:45;;;;;;;8.35;1.77;;;;;;;16.28;100.00;100431.31;4958765;28;20106;-80
2021/08/09 07:18:10;;;;;;;7.68;1.98;;;;;;;16.26;100.00;100427.94;4957741;29;20023;-80
2021/08/09 07:20:35;;;;;;;7.28;1.85;;;;;;;16.50;100.00;100425.97;4957659;29;20031;-80
2021/08/09 07:23:01;;;;;;;10.15;2.03;;;;;;;16.56;100.00;100431.81;4957024;29;20027;-80
2021/08/09 07:25:26;;;;;;;9.20;1.88;;;;;;;16.75;100.00;100425.72;4956967;28;20031;-80
2021/08/09 07:27:52;;;;;;;8.27;2.20;;;;;;;16.94;100.00;100436.25;4958819;28;20050;-80
2021/08/09 07:30:18;;;;;;;7.13;1.60;;;;;;;16.87;100.00;100429.56;4959193;28;20030;-80
2021/08/09 07:32:44;;;;;;;6.40;2.30;;;;;;;16.93;100.00;100424.91;4959059;28;20046;-80
2021/08/09 07:35:09;;;;;;;9.18;2.10;;;;;;;16.89;100.00;100428.56;4959314;28;20027;-80
2021/08/09 07:37:35;;;;;;;9.85;1.98;;;;;;;17.12;100.00;100431.88;4957825;29;20476;-80
2021/08/09 07:40:00;;;;;;;9.80;1.90;;;;;;;17.45;98.95;100432.03;4959307;28;20062;-80
2021/08/09 07:42:25;;;;;;;7.57;2.00;;;;;;;17.88;95.87;100435.19;4957630;29;20039;-81
2021/08/09 07:44:52;;;;;;;11.17;2.47;;;;;;;17.47;95.48;100438.91;4957797;28;20392;-81
2021/08/09 07:47:17;;;;;;;11.85;1.90;;;;;;;17.34;97.35;100442.22;4959286;28;20263;-81
2021/08/09 07:49:43;;;;;;;9.27;1.77;;;;;;;17.31;97.50;100435.34;4957349;29;20034;-81
2021/08/09 07:52:09;;;;;;;6.65;2.30;;;;;;;17.37;98.15;100444.69;4957978;29;20030;-81
2021/08/09 07:54:34;;;;;;;8.50;2.08;;;;;;;18.31;91.46;100443.47;4958750;28;20031;-81
2021/08/09 07:57:03;;;;;;;8.82;2.28;;;;;;;18.51;89.11;100439.81;4961189;28;20042;-81
2021/08/09 07:59:29;;;;;;;10.65;2.05;;;;;;;19.44;85.74;100441.75;4960726;28;20023;-81
2021/08/09 08:01:54;;;;;;;7.32;1.88;;;;;;;19.85;83.32;100443.78;4958596;29;20049;-81
2021/08/09 08:04:20;;;;;;;8.13;2.17;;;;;;;19.34;87.25;100445.84;4959226;28;20492;-81
2021/08/09 08:06:45;;;;;;;9.80;2.22;;;;;;;20.04;80.44;100435.66;4960459;28;20031;-81
2021/08/09 08:09:10;;;;;;;7.40;1.80;;;;;;;20.25;80.13;100431.72;4961040;28;20030;-81
2021/08/09 08:11:36;;;;;;;7.73;2.30;;;;;;;20.18;81.38;100438.31;4961016;28;20070;-81
2021/08/09 08:14:01;;;;;;;9.52;2.53;;;;;;;19.52;82.80;100450.91;4961083;28;20262;-82
2021/08/09 08:16:27;;;;;;;8.15;1.58;;;;;;;19.94;81.42;100457.25;4958780;28;20030;-81
2021/08/09 08:18:52;;;;;;;7.47;2.30;;;;;;;19.99;79.76;100454.38;4957374;29;20031;-81
2021/08/09 08:21:17;;;;;;;9.35;2.63;;;;;;;20.80;77.77;100460.00;4956815;29;20067;-81
2021/08/09 08:23:42;;;;;;;7.47;2.30;;;;;;;20.79;76.97;100457.47;4958338;28;20031;-81
2021/08/09 08:26:08;;;;;;;14.15;2.75;;;;;;;20.47;79.15;100460.25;4957927;29;20023;-81
2021/08/09 08:28:35;;;;;;;8.52;2.13;;;;;;;21.37;77.57;100464.34;4959204;29;20038;-81
2021/08/09 08:31:00;;;;;;;7.25;1.80;;;;;;;20.94;76.57;100458.28;4960401;28;20539;-81
2021/08/09 08:33:25;;;;;;;10.57;2.15;;;;;;;21.33;73.63;100457.53;4958276;29;20019;-81
2021/08/09 08:35:51;;;;;;;9.98;2.00;;;;;;;21.60;71.13;100462.81;4959599;28;20031;-81
2021/08/09 08:38:16;;;;;;;9.07;2.15;;;;;;;21.33;72.72;100452.25;4958272;29;20048;-82
2021/08/09 08:40:47;;;;;;;8.20;1.92;;;;;;;21.87;72.93;100460.16;4957592;29;20396;-81
2021/08/09 08:43:27;;;;;;;10.45;2.10;;;;;;;21.70;71.23;100461.25;4958401;28;20098;-81
2021/08/09 08:45:59;;;;;;;10.38;2.08;;;;;;;22.37;67.59;100468.25;4958711;28;20034;-82
2021/08/09 08:48:25;;;;;;;7.40;1.77;;;;;;;22.64;66.43;100466.34;4958118;28;20061;-81
2021/08/09 08:50:51;;;;;;;6.10;1.90;;;;;;;22.17;69.60;100467.84;4959446;28;20031;-82
2021/08/09 08:53:17;;;;;;;8.65;2.30;;;;;;;21.37;70.85;100475.75;4957631;29;20508;-81
2021/08/09 08:55:42;;;;;;;10.10;2.25;;;;;;;20.06;76.67;100478.53;4957484;28;20035;-81
2021/08/09 08:58:07;;;;;;;9.53;1.90;;;;;;;19.92;78.67;100477.59;4957612;29;20404;-81
2021/08/09 09:00:37;;;;;;;7.88;1.70;;;;;;;21.28;72.70;100481.56;4958198;28;20317;-82
2021/08/09 09:03:14;;;;;;;10.05;2.35;;;;;;;21.98;67.43;100473.50;4958921;28;20031;-81
2021/08/09 09:05:40;;;;;;;7.28;2.10;;;;;;;21.92;69.93;100479.19;4958808;28;20027;-81
2021/08/09 09:08:05;;;;;;;6.68;1.60;;;;;;;22.60;67.23;100488.66;4958099;29;20122;-81
2021/08/09 09:10:36;;;;;;;7.57;1.60;;;;;;;21.59;70.14;100485.75;4958064;29;20031;-81
2021/08/09 09:13:14;;;;;;;6.32;1.73;;;;;;;20.87;72.65;100492.97;4956309;29;20668;-81
2021/08/09 09:15:59;;;;;;;7.13;2.00;;;;;;;20.90;75.34;100489.25;4958471;28;20102;-81
2021/08/09 09:18:27;;;;;;;7.30;1.83;;;;;;;22.62;66.59;100494.69;4956892;29;20031;-84
2021/08/09 09:20:53;;;;;;;7.70;2.28;;;;;;;22.11;63.17;100486.72;4956389;28;20033;-82
2021/08/09 09:23:22;;;;;;;7.35;1.90;;;;;;;22.61;65.05;100497.44;4959290;29;20023;-82
2021/08/09 09:25:48;;;;;;;5.93;1.35;;;;;;;21.76;64.31;100492.53;4959984;28;20530;-83
2021/08/09 09:28:21;;;;;;;8.45;1.73;;;;;;;21.58;66.61;100509.56;4959685;29;20440;-82
2021/08/09 09:30:47;;;;;;;5.32;1.45;;;;;;;21.58;64.81;100499.03;4959149;29;20023;-82
2021/08/09 09:33:12;;;;;;;6.20;1.25;;;;;;;21.98;61.71;100494.63;4959335;29;20033;-82
2021/08/09 09:35:38;;;;;;;9.05;1.90;;;;;;;21.99;61.27;100504.22;4960216;28;20035;-82
2021/08/09 09:38:04;;;;;;;4.93;1.17;;;;;;;22.70;62.96;100502.09;4958553;29;20027;-82
2021/08/09 09:40:41;;;;;;;6.18;1.30;;;;;;;23.87;55.84;100513.94;4957735;29;20041;-83
2021/08/09 09:43:18;;;;;;;8.05;1.30;;;;;;;24.44;54.24;100508.81;4959018;28;20121;-83
2021/08/09 09:45:55;;;;;;;3.85;1.10;;;;;;;23.16;58.51;100506.81;4958029;28;20042;-83
2021/08/09 09:48:38;;;;;;;7.45;1.27;;;;;;;24.14;56.15;100515.50;4959099;28;20027;-83
2021/08/09 09:51:13;;;;;;;6.22;1.23;;;;;;;23.67;57.58;100515.38;4957003;29;20027;-83
2021/08/09 09:53:40;;;;;;;8.55;1.45;;;;;;;22.01;58.25;100512.03;4957133;28;20023;-84
2021/08/09 09:56:06;;;;;;;6.82;1.58;;;;;;;22.33;58.25;100519.66;4957493;29;20026;-83
2021/08/09 09:58:33;;;;;;;6.47;1.50;;;;;;;22.63;60.03;100508.72;4958751;28;20488;-82
2021/08/09 10:00:59;;;;;;;6.90;1.30;;;;;;;22.36;58.18;100506.22;4958878;29;20027;-82
2021/08/09 10:03:25;;;;;;;5.47;1.40;;;;;;;21.63;59.54;100512.78;4961847;28;20051;-82
2021/08/09 10:05:52;;;;;;;4.97;1.15;;;;;;;20.95;62.00;100518.00;5029567;23;20070;-88
2021/08/09 10:08:19;;;;;;;7.18;1.40;;;;;;;20.87;64.11;100521.97;4956681;29;20106;-88
2021/08/09 10:10:52;;;;;;;5.85;1.45;;;;;;;20.83;64.36;100525.69;4956516;29;20055;-88
2021/08/09 10:13:22;;;;;;;;;;;;;;;20.97;61.15;100519.59;4956892;29;20023;-88
2021/08/09 10:15:53;;;;;;;5.15;1.00;;;;;;;20.64;65.04;100525.16;4956417;28;19949;-88
2021/08/09 10:18:24;;;;;;;4.47;1.15;;;;;;;20.92;63.83;100524.28;4957664;28;20023;-88
2021/08/09 10:20:51;;;;;;;5.35;1.27;;;;;;;21.43;63.54;100522.00;4956390;29;20034;-88
2021/08/09 10:23:39;;;;;;;7.03;1.70;;;;;;;21.53;63.57;100524.88;4956283;29;20086;-89
2021/08/09 10:26:09;;;;;;;7.53;1.98;;;;;;;21.77;64.43;100523.28;4956319;28;20027;-88
2021/08/09 10:28:53;;;;;;;6.60;1.27;;;;;;;20.96;64.49;100530.22;4957480;28;20049;-89
2021/08/09 10:31:25;;;;;;;4.28;1.05;;;;;;;20.92;62.77;100519.88;4956262;29;20081;-89
2021/08/09 10:33:52;;;;;;;5.47;0.88;;;;;;;20.83;64.69;100525.69;4956140;28;20031;-88
2021/08/09 10:36:22;;;;;;;5.05;1.20;;;;;;;21.03;63.38;100536.81;4956023;28;20114;-88
2021/08/09 10:38:53;;;;;;;6.25;1.52;;;;;;;20.36;63.14;100532.03;4956073;29;20077;-88
2021/08/09 10:41:33;;;;;;;7.32;1.92;;;;;;;21.05;64.54;100548.09;4956168;28;20058;-88
2021/08/09 10:44:04;;;;;;;5.35;1.35;;;;;;;21.13;62.60;100548.50;4955851;28;20514;-88
2021/08/09 10:46:37;;;;;;;4.85;1.38;;;;;;;21.19;65.27;100532.28;4955706;28;20038;-88
2021/08/09 10:49:03;;;;;;;7.18;1.33;;;;;;;20.87;62.77;100550.97;4955701;29;20027;-88
2021/08/09 10:51:50;;;;;;;5.82;1.13;;;;;;;20.86;62.17;100548.41;4955714;29;20118;-88
2021/08/09 10:54:30;;;;;;;5.88;1.25;;;;;;;20.69;63.20;100550.28;4957900;29;20114;-88
2021/08/09 10:56:57;;;;;;;5.25;1.20;;;;;;;20.55;63.60;100563.44;4966914;28;20098;-88
2021/08/09 10:59:38;;;;;;;4.10;1.20;;;;;;;20.67;63.50;100562.69;4963493;29;20019;-88
2021/08/09 11:02:04;;;;;;;5.72;1.00;;;;;;;21.15;62.85;100570.31;4961214;29;20027;-88
2021/08/09 11:04:30;;;;;;;5.32;1.20;;;;;;;20.63;62.41;100568.25;4961985;28;20437;-87
2021/08/09 11:06:56;;;;;;;6.40;1.10;;;;;;;21.05;62.93;100561.28;4958568;29;20034;-88
2021/08/09 11:09:31;;;;;;;5.80;1.48;;;;;;;20.67;61.81;100560.06;4955532;29;20031;-88
2021/08/09 11:12:10;;;;;;;7.72;1.58;;;;;;;21.25;63.58;100562.72;4957069;28;20130;-88
2021/08/09 11:15:00;;;;;;;5.88;1.10;;;;;;;21.13;64.57;100564.31;4955435;28;20023;-88
2021/08/09 11:17:30;;;;;;;6.65;1.15;;;;;;;20.36;64.41;100558.38;4955354;29;20113;-88
2021/08/09 11:20:22;;;;;;;5.78;1.23;;;;;;;20.22;64.30;100560.97;4956451;28;20023;-88